createdAt,value
2023-02-26T00:01:31.626Z,50.07
2023-02-26T00:04:01.632Z,50.17
2023-02-26T00:06:29.969Z,49.83
2023-02-26T00:08:57.670Z,49.88
2023-02-26T00:11:25.961Z,49.10
2023-02-26T00:13:53.728Z,49.15
2023-02-26T00:16:36.331Z,48.48
2023-02-26T00:19:06.153Z,48.87
2023-02-26T00:21:35.132Z,49.15
2023-02-26T00:24:02.794Z,48.74
2023-02-26T00:26:32.057Z,49.88
2023-02-26T00:29:00.116Z,49.13
2023-02-26T00:31:28.019Z,49.44
2023-02-26T00:33:57.321Z,49.01
2023-02-26T00:36:45.112Z,50.53
2023-02-26T00:39:18.954Z,49.95
2023-02-26T00:41:46.524Z,50.10
2023-02-26T00:44:14.455Z,50.25
2023-02-26T00:46:47.877Z,50.03
2023-02-26T00:49:18.692Z,49.96
2023-02-26T00:51:45.960Z,48.69
2023-02-26T00:54:19.570Z,49.90
2023-02-26T00:56:48.524Z,49.26
2023-02-26T00:59:16.974Z,48.98
2023-02-26T01:01:45.249Z,48.97
2023-02-26T01:04:15.219Z,48.49
2023-02-26T01:06:46.213Z,48.66
2023-02-26T01:09:25.765Z,49.56
2023-02-26T01:11:55.920Z,50.20
2023-02-26T01:14:24.611Z,50.08
2023-02-26T01:17:03.268Z,49.44
2023-02-26T01:19:46.505Z,50.21
2023-02-26T01:22:33.792Z,50.16
2023-02-26T01:25:08.074Z,49.64
2023-02-26T01:27:35.964Z,50.10
2023-02-26T01:30:05.680Z,50.69
2023-02-26T01:32:49.702Z,50.82
2023-02-26T01:35:21.240Z,50.92
2023-02-26T01:38:05.100Z,50.24
2023-02-26T01:41:03.853Z,50.46
2023-02-26T01:43:36.150Z,50.73
2023-02-26T01:46:35.480Z,51.48
2023-02-26T01:49:04.538Z,50.64
2023-02-26T01:51:55.661Z,50.29
2023-02-26T01:54:34.482Z,49.84
2023-02-26T01:57:04.984Z,50.10
2023-02-26T01:59:34.881Z,49.77
2023-02-26T02:02:04.606Z,49.58
2023-02-26T02:04:33.562Z,49.48
2023-02-26T02:07:02.194Z,49.35
2023-02-26T02:09:29.741Z,49.87
2023-02-26T02:12:19.213Z,49.26
2023-02-26T02:14:56.155Z,48.94
2023-02-26T02:17:35.803Z,48.67
2023-02-26T02:20:19.847Z,48.63
2023-02-26T02:23:13.352Z,48.68
2023-02-26T02:25:49.862Z,48.65
2023-02-26T02:28:45.465Z,49.45
2023-02-26T02:31:28.734Z,49.00
2023-02-26T02:34:23.046Z,49.17
2023-02-26T02:37:01.491Z,49.62
2023-02-26T02:39:50.919Z,49.71
2023-02-26T02:42:30.469Z,51.26
2023-02-26T02:45:03.593Z,51.08
2023-02-26T02:47:34.406Z,50.94
2023-02-26T02:50:14.493Z,51.50
2023-02-26T02:53:09.553Z,51.54
2023-02-26T02:55:47.538Z,52.33
2023-02-26T02:58:18.630Z,53.41
2023-02-26T03:00:53.443Z,53.55
2023-02-26T03:03:44.673Z,54.51
2023-02-26T03:06:12.336Z,54.56
2023-02-26T03:08:41.621Z,54.03
2023-02-26T03:11:10.097Z,55.22
2023-02-26T03:13:39.651Z,54.46
2023-02-26T03:16:43.275Z,54.62
2023-02-26T03:19:31.872Z,53.38
2023-02-26T03:22:06.827Z,53.31
2023-02-26T03:24:38.873Z,52.98
2023-02-26T03:27:14.482Z,53.11
2023-02-26T03:30:01.643Z,52.66
2023-02-26T03:32:45.748Z,53.97
2023-02-26T03:35:26.807Z,53.27
2023-02-26T03:37:59.355Z,53.74
2023-02-26T03:40:31.632Z,53.30
2023-02-26T03:43:22.462Z,53.85
2023-02-26T03:45:53.737Z,53.43
2023-02-26T03:48:25.298Z,53.12
2023-02-26T03:50:58.675Z,52.50
2023-02-26T03:53:33.337Z,53.23
2023-02-26T03:56:14.193Z,53.65
2023-02-26T03:58:43.737Z,53.55
2023-02-26T04:01:23.437Z,53.12
2023-02-26T04:04:01.026Z,53.30
2023-02-26T04:06:29.548Z,53.51
2023-02-26T04:08:57.456Z,52.95
2023-02-26T04:11:25.840Z,52.70
2023-02-26T04:13:53.520Z,52.34
2023-02-26T04:16:21.510Z,52.13
2023-02-26T04:18:48.924Z,51.83
2023-02-26T04:21:21.046Z,51.54
2023-02-26T04:23:48.862Z,51.07
2023-02-26T04:26:16.344Z,50.85
2023-02-26T04:28:44.567Z,50.74
2023-02-26T04:31:12.427Z,50.70
2023-02-26T04:33:40.378Z,50.94
2023-02-26T04:36:08.429Z,51.42
2023-02-26T04:38:36.309Z,51.52
2023-02-26T04:41:05.209Z,51.45
2023-02-26T04:43:32.979Z,52.01
2023-02-26T04:46:02.078Z,52.92
2023-02-26T04:48:29.956Z,53.20
2023-02-26T04:50:57.390Z,53.71
2023-02-26T04:53:25.087Z,53.93
2023-02-26T04:55:52.668Z,53.51
2023-02-26T04:58:20.230Z,53.71
2023-02-26T05:00:49.702Z,54.58
2023-02-26T05:03:17.933Z,55.18
2023-02-26T05:05:46.296Z,56.38
2023-02-26T05:08:13.977Z,56.72
2023-02-26T05:10:41.493Z,56.71
2023-02-26T05:13:08.848Z,57.07
2023-02-26T05:15:36.531Z,56.05
2023-02-26T05:18:03.996Z,55.52
2023-02-26T05:20:31.426Z,56.22
2023-02-26T05:22:59.380Z,55.81
2023-02-26T05:25:26.766Z,55.16
2023-02-26T05:27:54.213Z,55.27
2023-02-26T05:30:23.627Z,54.68
2023-02-26T05:32:51.002Z,55.65
2023-02-26T05:35:18.419Z,55.71
2023-02-26T05:37:46.043Z,56.64
2023-02-26T05:40:14.081Z,56.33
2023-02-26T05:42:41.665Z,56.69
2023-02-26T05:45:10.105Z,57.02
2023-02-26T05:47:38.451Z,56.75
2023-02-26T05:50:06.968Z,57.01
2023-02-26T05:52:34.940Z,57.10
2023-02-26T05:55:02.651Z,56.87
2023-02-26T05:57:30.043Z,56.97
2023-02-26T05:59:57.692Z,57.93
2023-02-26T06:02:25.255Z,56.75
2023-02-26T06:04:52.903Z,57.03
2023-02-26T06:07:20.327Z,56.88
2023-02-26T06:09:47.692Z,57.09
2023-02-26T06:12:15.388Z,56.18
2023-02-26T06:14:42.888Z,57.08
2023-02-26T06:17:10.241Z,56.64
2023-02-26T06:19:37.858Z,56.77
2023-02-26T06:22:05.302Z,57.41
2023-02-26T06:24:32.760Z,56.29
2023-02-26T06:27:00.442Z,55.78
2023-02-26T06:29:27.817Z,55.77
2023-02-26T06:31:55.230Z,56.28
2023-02-26T06:34:23.074Z,56.81
2023-02-26T06:36:50.506Z,55.94
2023-02-26T06:39:17.917Z,55.27
2023-02-26T06:41:45.675Z,55.20
2023-02-26T06:44:13.065Z,55.37
2023-02-26T06:46:40.428Z,55.63
2023-02-26T06:49:08.145Z,54.67
2023-02-26T06:51:36.346Z,55.73
2023-02-26T06:54:04.719Z,55.83
2023-02-26T06:56:32.414Z,55.16
2023-02-26T06:58:59.858Z,54.99
2023-02-26T07:01:27.366Z,55.61
2023-02-26T07:03:55.182Z,55.09
2023-02-26T07:06:27.631Z,57.11
2023-02-26T07:08:56.210Z,57.74
2023-02-26T07:11:23.694Z,57.82
2023-02-26T07:13:53.799Z,57.40
2023-02-26T07:16:21.502Z,58.74
2023-02-26T07:18:48.888Z,57.84
2023-02-26T07:21:16.284Z,57.93
2023-02-26T07:23:43.941Z,57.84
2023-02-26T07:26:11.308Z,57.54
2023-02-26T07:28:38.692Z,57.33
2023-02-26T07:31:06.387Z,57.45
2023-02-26T07:33:35.022Z,57.08
2023-02-26T07:36:02.491Z,57.35
2023-02-26T07:38:30.227Z,57.59
2023-02-26T07:40:57.630Z,57.59
2023-02-26T07:43:25.208Z,57.41
2023-02-26T07:45:52.958Z,57.50
2023-02-26T07:48:20.850Z,56.70
2023-02-26T07:50:50.894Z,55.89
2023-02-26T07:53:18.920Z,55.77
2023-02-26T07:55:46.256Z,56.21
2023-02-26T07:58:13.783Z,56.58
2023-02-26T08:00:41.463Z,56.13
2023-02-26T08:03:09.121Z,55.51
2023-02-26T08:05:36.591Z,55.70
2023-02-26T08:08:04.526Z,57.30
2023-02-26T08:10:32.643Z,55.91
2023-02-26T08:13:00.311Z,55.21
2023-02-26T08:15:27.754Z,55.32
2023-02-26T08:17:55.394Z,55.03
2023-02-26T08:20:23.285Z,54.59
2023-02-26T08:22:51.266Z,55.09
2023-02-26T08:25:18.970Z,54.79
2023-02-26T08:27:46.358Z,53.93
2023-02-26T08:30:14.169Z,54.17
2023-02-26T08:32:42.582Z,53.70
2023-02-26T08:35:10.811Z,54.25
2023-02-26T08:37:38.961Z,53.56
2023-02-26T08:40:09.052Z,53.85
2023-02-26T08:42:36.760Z,54.04
2023-02-26T08:45:04.596Z,53.93
2023-02-26T08:47:33.022Z,54.42
2023-02-26T08:50:01.503Z,54.33
2023-02-26T08:52:28.982Z,53.96
2023-02-26T08:54:56.661Z,54.00
2023-02-26T08:57:24.057Z,54.86
2023-02-26T08:59:51.437Z,54.61
2023-02-26T09:02:19.087Z,53.39
2023-02-26T09:04:47.266Z,53.67
2023-02-26T09:07:15.364Z,53.38
2023-02-26T09:09:43.710Z,53.37
2023-02-26T09:12:11.152Z,53.21
2023-02-26T09:14:38.512Z,52.29
2023-02-26T09:17:06.181Z,52.79
2023-02-26T09:19:33.574Z,52.11
2023-02-26T09:22:00.981Z,51.39
2023-02-26T09:24:28.732Z,51.71
2023-02-26T09:26:56.163Z,51.37
2023-02-26T09:29:23.676Z,51.45
2023-02-26T09:31:51.885Z,50.72
2023-02-26T09:34:20.420Z,50.86
2023-02-26T09:36:47.901Z,50.33
2023-02-26T09:39:15.574Z,50.94
2023-02-26T09:41:50.573Z,50.24
2023-02-26T09:44:28.176Z,51.19
2023-02-26T09:47:00.650Z,50.78
2023-02-26T09:49:32.931Z,49.78
2023-02-26T09:52:13.335Z,49.56
2023-02-26T09:54:47.882Z,49.14
2023-02-26T09:57:36.280Z,49.02
2023-02-26T10:00:17.816Z,48.44
2023-02-26T10:02:57.928Z,46.38
2023-02-26T10:05:34.594Z,45.45
2023-02-26T10:08:10.425Z,44.93
2023-02-26T10:10:57.729Z,44.91
2023-02-26T10:13:56.079Z,44.34
2023-02-26T10:16:28.626Z,43.91
2023-02-26T10:19:18.389Z,46.17
2023-02-26T10:21:53.070Z,45.32
2023-02-26T10:24:38.148Z,44.28
2023-02-26T10:27:35.245Z,45.22
2023-02-26T10:30:10.383Z,44.61
2023-02-26T10:32:43.665Z,42.86
2023-02-26T10:35:17.080Z,41.14
2023-02-26T10:37:52.342Z,41.69
2023-02-26T10:40:38.786Z,41.62
2023-02-26T10:43:19.507Z,40.97
2023-02-26T10:45:57.373Z,40.94
2023-02-26T10:48:28.353Z,41.19
2023-02-26T10:50:58.141Z,41.33
2023-02-26T10:53:27.089Z,40.70
2023-02-26T10:56:04.532Z,41.27
2023-02-26T10:58:32.273Z,40.87
2023-02-26T11:00:59.658Z,41.66
2023-02-26T11:03:36.275Z,40.36
2023-02-26T11:06:05.199Z,40.86
2023-02-26T11:08:35.688Z,40.75
2023-02-26T11:11:04.726Z,40.17
2023-02-26T11:13:34.826Z,39.24
2023-02-26T11:16:05.694Z,38.84
2023-02-26T11:18:40.705Z,39.63
2023-02-26T11:21:09.474Z,39.54
2023-02-26T11:23:37.383Z,39.65
2023-02-26T11:26:13.909Z,41.40
2023-02-26T11:28:49.342Z,38.03
2023-02-26T11:31:19.948Z,38.54
2023-02-26T11:33:59.322Z,38.98
2023-02-26T11:36:30.545Z,38.73
2023-02-26T11:39:02.343Z,38.64
2023-02-26T11:41:30.037Z,39.38
2023-02-26T11:44:03.327Z,39.37
2023-02-26T11:46:31.155Z,39.65
2023-02-26T11:49:00.293Z,39.98
2023-02-26T11:51:29.270Z,39.02
2023-02-26T11:54:01.425Z,39.45
2023-02-26T11:56:34.152Z,40.19
2023-02-26T11:59:27.646Z,40.23
2023-02-26T12:01:55.279Z,40.84
2023-02-26T12:04:27.596Z,40.97
2023-02-26T12:06:55.965Z,41.07
2023-02-26T12:09:25.377Z,41.38
2023-02-26T12:12:14.585Z,41.20
2023-02-26T12:15:11.434Z,40.88
2023-02-26T12:18:01.145Z,41.15
2023-02-26T12:20:59.877Z,40.86
2023-02-26T12:23:31.159Z,41.21
2023-02-26T12:26:28.193Z,40.87
2023-02-26T12:29:05.728Z,40.70
2023-02-26T12:31:45.913Z,40.89
2023-02-26T12:34:44.995Z,41.15
2023-02-26T12:37:36.975Z,40.87
2023-02-26T12:40:31.724Z,42.74
2023-02-26T12:43:23.281Z,40.26
2023-02-26T12:46:02.563Z,40.35
2023-02-26T12:48:45.342Z,40.90
2023-02-26T12:51:15.624Z,40.94
2023-02-26T12:53:46.190Z,40.78
2023-02-26T12:56:34.877Z,40.71
2023-02-26T12:59:05.194Z,41.29
2023-02-26T13:02:01.266Z,40.99
2023-02-26T13:04:42.401Z,41.04
2023-02-26T13:07:32.614Z,41.74
2023-02-26T13:10:05.729Z,41.78
2023-02-26T13:12:49.500Z,41.57
2023-02-26T13:15:36.226Z,41.81
2023-02-26T13:18:26.651Z,47.04
2023-02-26T13:21:00.621Z,42.01
2023-02-26T13:23:36.663Z,41.42
2023-02-26T13:26:07.577Z,41.12
2023-02-26T13:28:42.866Z,41.17
2023-02-26T13:31:18.066Z,40.79
2023-02-26T13:33:46.332Z,40.77
2023-02-26T13:36:16.281Z,40.66
2023-02-26T13:38:56.610Z,41.37
2023-02-26T13:41:34.201Z,41.81
2023-02-26T13:44:12.938Z,41.70
2023-02-26T13:46:52.975Z,41.04
2023-02-26T13:49:26.040Z,41.12
2023-02-26T13:51:55.016Z,41.11
2023-02-26T13:54:22.294Z,40.56
2023-02-26T13:56:55.439Z,41.18
2023-02-26T13:59:33.226Z,40.79
2023-02-26T14:02:03.661Z,41.50
2023-02-26T14:04:33.489Z,40.89
2023-02-26T14:07:14.318Z,41.54
2023-02-26T14:10:01.289Z,41.27
2023-02-26T14:12:36.682Z,41.32
2023-02-26T14:15:13.288Z,40.76
2023-02-26T14:17:49.111Z,41.35
2023-02-26T14:20:28.725Z,41.38
2023-02-26T14:23:09.620Z,42.12
2023-02-26T14:25:48.405Z,42.66
2023-02-26T14:28:20.313Z,42.99
2023-02-26T14:30:52.073Z,43.89
2023-02-26T14:33:26.801Z,43.64
2023-02-26T14:35:54.761Z,43.74
2023-02-26T14:38:25.736Z,43.15
2023-02-26T14:40:58.011Z,42.84
2023-02-26T14:43:34.973Z,42.86
2023-02-26T14:46:03.970Z,42.96
2023-02-26T14:48:33.008Z,42.97
2023-02-26T14:51:24.845Z,42.64
2023-02-26T14:53:59.521Z,42.42
2023-02-26T14:56:38.997Z,42.74
2023-02-26T14:59:38.827Z,42.31
2023-02-26T15:02:22.981Z,42.23
2023-02-26T15:04:56.274Z,42.66
2023-02-26T15:07:42.689Z,42.58
2023-02-26T15:10:41.633Z,42.75
2023-02-26T15:13:40.459Z,43.40
2023-02-26T15:16:26.506Z,43.88
2023-02-26T15:19:09.449Z,44.19
2023-02-26T15:22:07.368Z,44.11
2023-02-26T15:24:34.778Z,44.73
2023-02-26T15:27:04.858Z,44.27
2023-02-26T15:29:37.749Z,44.82
2023-02-26T15:32:14.147Z,44.46
2023-02-26T15:35:04.720Z,44.80
2023-02-26T15:37:33.722Z,44.14
2023-02-26T15:40:05.151Z,44.33
2023-02-26T15:42:38.538Z,43.73
2023-02-26T15:45:13.575Z,43.50
2023-02-26T15:47:41.306Z,42.87
2023-02-26T15:50:14.544Z,42.64
2023-02-26T15:52:42.252Z,43.09
2023-02-26T15:55:15.079Z,42.89
2023-02-26T15:57:42.829Z,42.62
2023-02-26T16:00:16.337Z,42.75
2023-02-26T16:02:45.691Z,43.18
2023-02-26T16:05:14.702Z,43.19
2023-02-26T16:07:42.329Z,43.17
2023-02-26T16:10:20.917Z,42.90
2023-02-26T16:12:49.383Z,42.72
2023-02-26T16:15:21.274Z,43.51
2023-02-26T16:17:50.865Z,43.04
2023-02-26T16:20:21.453Z,43.55
2023-02-26T16:22:50.834Z,43.16
2023-02-26T16:25:25.109Z,61.58
2023-02-26T16:28:00.317Z,43.59
2023-02-26T16:30:36.903Z,42.60
2023-02-26T16:33:06.189Z,42.35
2023-02-26T16:35:38.642Z,42.45
2023-02-26T16:38:15.682Z,42.28
2023-02-26T16:40:44.869Z,42.08
2023-02-26T16:43:44.641Z,41.50
2023-02-26T16:46:16.537Z,41.76
2023-02-26T16:48:50.836Z,42.09
2023-02-26T16:51:22.220Z,42.11
2023-02-26T16:53:58.227Z,41.75
2023-02-26T16:56:30.040Z,42.00
2023-02-26T16:59:12.727Z,41.90
2023-02-26T17:01:45.438Z,41.65
2023-02-26T17:04:15.448Z,41.85
2023-02-26T17:06:43.500Z,42.08
2023-02-26T17:09:42.923Z,41.99
2023-02-26T17:12:15.496Z,42.14
2023-02-26T17:14:45.638Z,41.99
2023-02-26T17:17:13.613Z,41.97
2023-02-26T17:19:40.989Z,41.92
2023-02-26T17:22:13.275Z,43.17
2023-02-26T17:24:41.547Z,42.26
2023-02-26T17:27:11.954Z,45.61
2023-02-26T17:29:42.367Z,41.85
2023-02-26T17:32:24.816Z,41.01
2023-02-26T17:34:52.843Z,41.14
2023-02-26T17:37:21.336Z,41.28
2023-02-26T17:39:48.725Z,41.31
2023-02-26T17:42:21.266Z,41.58
2023-02-26T17:44:50.226Z,41.53
2023-02-26T17:47:21.630Z,41.80
2023-02-26T17:49:49.650Z,42.25
2023-02-26T17:52:17.364Z,42.10
2023-02-26T17:54:44.941Z,42.27
2023-02-26T17:57:21.329Z,42.10
2023-02-26T17:59:49.314Z,42.12
2023-02-26T18:02:26.988Z,41.99
2023-02-26T18:04:54.818Z,42.04
2023-02-26T18:07:23.552Z,41.98
2023-02-26T18:09:50.904Z,42.21
2023-02-26T18:12:21.116Z,42.45
2023-02-26T18:14:49.493Z,42.49
2023-02-26T18:17:27.775Z,42.47
2023-02-26T18:19:55.500Z,42.35
2023-02-26T18:22:27.563Z,42.87
2023-02-26T18:24:55.578Z,43.01
2023-02-26T18:27:24.523Z,42.46
2023-02-26T18:29:52.477Z,42.24
2023-02-26T18:32:23.077Z,42.33
2023-02-26T18:34:51.267Z,42.71
2023-02-26T18:37:21.398Z,42.56
2023-02-26T18:39:49.737Z,42.50
2023-02-26T18:42:22.886Z,42.48
2023-02-26T18:44:51.081Z,43.01
2023-02-26T18:47:18.952Z,43.38
2023-02-26T18:49:49.162Z,43.34
2023-02-26T18:52:16.866Z,43.23
2023-02-26T18:54:45.185Z,43.50
2023-02-26T18:57:12.630Z,43.08
2023-02-26T18:59:40.267Z,43.15
2023-02-26T19:02:10.915Z,43.60
2023-02-26T19:04:38.540Z,43.77
2023-02-26T19:07:07.684Z,43.82
2023-02-26T19:09:35.515Z,43.78
2023-02-26T19:12:03.563Z,43.56
2023-02-26T19:14:31.746Z,43.50
2023-02-26T19:16:59.493Z,43.80
2023-02-26T19:19:27.308Z,44.02
2023-02-26T19:21:55.756Z,44.24
2023-02-26T19:24:23.172Z,44.07
2023-02-26T19:26:50.652Z,43.90
2023-02-26T19:29:19.968Z,43.12
2023-02-26T19:31:47.553Z,42.57
2023-02-26T19:34:15.483Z,42.64
2023-02-26T19:36:48.163Z,42.44
2023-02-26T19:39:15.829Z,42.31
2023-02-26T19:41:43.697Z,42.80
2023-02-26T19:44:11.201Z,42.46
2023-02-26T19:46:38.643Z,43.10
2023-02-26T19:49:06.291Z,43.34
2023-02-26T19:51:33.677Z,43.30
2023-02-26T19:54:01.012Z,42.96
2023-02-26T19:56:28.812Z,42.77
2023-02-26T19:58:56.541Z,43.36
2023-02-26T20:01:24.085Z,43.00
2023-02-26T20:03:51.780Z,43.16
2023-02-26T20:06:20.076Z,43.36
2023-02-26T20:08:47.658Z,43.65
2023-02-26T20:11:15.343Z,43.78
2023-02-26T20:13:43.107Z,44.08
2023-02-26T20:16:11.280Z,44.11
2023-02-26T20:18:39.344Z,44.05
2023-02-26T20:21:09.533Z,44.27
2023-02-26T20:23:38.549Z,44.42
2023-02-26T20:26:09.858Z,43.64
2023-02-26T20:28:37.385Z,43.68
2023-02-26T20:31:05.908Z,44.05
2023-02-26T20:33:34.239Z,43.67
2023-02-26T20:36:02.022Z,43.39
2023-02-26T20:38:29.484Z,43.47
2023-02-26T20:40:57.149Z,42.81
2023-02-26T20:43:25.057Z,42.40
2023-02-26T20:45:55.123Z,42.46
2023-02-26T20:48:23.471Z,42.61
2023-02-26T20:50:53.553Z,42.98
2023-02-26T20:53:21.813Z,43.69
2023-02-26T20:55:49.551Z,43.20
2023-02-26T20:58:17.325Z,43.39
2023-02-26T21:00:45.006Z,43.47
2023-02-26T21:03:13.023Z,42.62
2023-02-26T21:05:41.693Z,42.72
2023-02-26T21:08:10.581Z,41.82
2023-02-26T21:10:38.441Z,42.70
2023-02-26T21:13:05.830Z,43.05
2023-02-26T21:15:33.237Z,42.19
2023-02-26T21:18:00.907Z,41.44
2023-02-26T21:20:28.392Z,42.18
2023-02-26T21:22:55.833Z,42.72
2023-02-26T21:25:23.592Z,41.13
2023-02-26T21:27:51.402Z,41.56
2023-02-26T21:30:19.897Z,42.43
2023-02-26T21:32:47.652Z,42.95
2023-02-26T21:35:16.970Z,42.73
2023-02-26T21:37:45.005Z,42.50
2023-02-26T21:40:14.535Z,41.96
2023-02-26T21:42:42.749Z,42.63
2023-02-26T21:45:10.706Z,43.08
2023-02-26T21:47:38.454Z,43.10
2023-02-26T21:50:06.676Z,42.97
2023-02-26T21:52:34.182Z,42.08
2023-02-26T21:55:02.013Z,40.16
2023-02-26T21:57:30.058Z,38.62
2023-02-26T21:59:57.866Z,38.64
2023-02-26T22:02:25.790Z,38.17
2023-02-26T22:04:53.511Z,38.34
2023-02-26T22:07:20.869Z,37.71
2023-02-26T22:09:49.059Z,36.39
2023-02-26T22:12:17.260Z,36.87
2023-02-26T22:14:44.889Z,36.81
2023-02-26T22:17:12.274Z,36.61
2023-02-26T22:19:39.988Z,37.05
2023-02-26T22:22:07.391Z,37.10
2023-02-26T22:24:34.965Z,36.85
2023-02-26T22:27:02.655Z,37.19
2023-02-26T22:29:30.045Z,37.32
2023-02-26T22:31:57.627Z,36.57
2023-02-26T22:34:25.551Z,36.25
2023-02-26T22:36:53.572Z,36.93
2023-02-26T22:39:21.517Z,37.47
2023-02-26T22:41:49.271Z,37.16
2023-02-26T22:44:16.712Z,36.65
2023-02-26T22:46:44.496Z,36.78
2023-02-26T22:49:12.104Z,36.55
2023-02-26T22:51:39.537Z,35.96
2023-02-26T22:54:06.887Z,36.52
2023-02-26T22:56:34.579Z,36.39
2023-02-26T22:59:01.960Z,36.23
2023-02-26T23:01:29.952Z,36.53
2023-02-26T23:03:59.192Z,36.59
2023-02-26T23:06:26.810Z,36.56
2023-02-26T23:08:54.216Z,36.24
2023-02-26T23:11:21.910Z,36.98
2023-02-26T23:13:49.251Z,36.50
2023-02-26T23:16:16.741Z,36.82
2023-02-26T23:18:47.927Z,36.42
2023-02-26T23:21:15.741Z,36.69
2023-02-26T23:23:43.976Z,37.25
2023-02-26T23:26:11.890Z,37.25
2023-02-26T23:28:39.225Z,37.07
2023-02-26T23:31:06.782Z,37.05
2023-02-26T23:33:35.436Z,37.07
2023-02-26T23:36:02.827Z,37.64
2023-02-26T23:38:30.359Z,37.90
2023-02-26T23:40:57.971Z,37.32
2023-02-26T23:43:25.398Z,36.67
2023-02-26T23:45:52.784Z,37.60
2023-02-26T23:48:20.695Z,38.37
2023-02-26T23:50:49.162Z,38.49
2023-02-26T23:53:16.578Z,37.38
2023-02-26T23:55:44.265Z,38.22
2023-02-26T23:58:11.656Z,38.59
